createdAt,value
2023-04-04T00:01:12.771Z,4.68
2023-04-04T00:06:16.661Z,5.45
2023-04-04T00:11:19.273Z,4.78
2023-04-04T00:16:22.326Z,4.20
2023-04-04T00:21:27.531Z,4.80
2023-04-04T00:26:30.806Z,5.35
2023-04-04T00:31:34.690Z,4.07
2023-04-04T00:36:38.669Z,4.60
2023-04-04T00:41:41.842Z,4.70
2023-04-04T00:46:44.431Z,4.28
2023-04-04T00:51:48.305Z,4.97
2023-04-04T00:56:55.078Z,5.55
2023-04-04T01:01:58.386Z,5.43
2023-04-04T01:07:04.369Z,5.07
2023-04-04T01:12:07.628Z,5.60
2023-04-04T01:17:10.282Z,6.20
2023-04-04T01:22:15.884Z,6.32
2023-04-04T01:27:19.801Z,5.55
2023-04-04T01:32:30.182Z,5.32
2023-04-04T01:37:38.048Z,6.18
2023-04-04T01:42:45.262Z,5.53
2023-04-04T01:47:47.933Z,6.25
2023-04-04T01:52:51.020Z,5.72
2023-04-04T01:57:55.029Z,5.82
2023-04-04T02:02:57.606Z,5.75
2023-04-04T02:08:00.517Z,5.25
2023-04-04T02:13:04.481Z,5.10
2023-04-04T02:18:07.205Z,5.18
2023-04-04T02:23:09.769Z,5.43
2023-04-04T02:28:13.645Z,5.43
2023-04-04T02:33:17.313Z,5.75
2023-04-04T02:43:23.751Z,5.45
2023-04-04T02:48:27.431Z,5.43
2023-04-04T02:58:34.023Z,5.93
2023-04-04T03:03:36.745Z,6.05
2023-04-04T03:08:39.490Z,6.50
2023-04-04T03:13:43.825Z,5.85
2023-04-04T03:18:46.920Z,5.68
2023-04-04T03:23:49.466Z,5.50
2023-04-04T03:28:53.376Z,6.45
2023-04-04T03:33:56.013Z,6.22
2023-04-04T03:38:58.561Z,6.13
2023-04-04T03:44:04.640Z,6.57
2023-04-04T03:49:07.222Z,5.72
2023-04-04T03:54:09.774Z,6.50
2023-04-04T03:59:14.101Z,6.03
2023-04-04T04:04:16.775Z,5.63
2023-04-04T04:09:19.340Z,6.65
2023-04-04T04:14:23.264Z,7.18
2023-04-04T04:19:25.843Z,7.40
2023-04-04T04:24:28.438Z,7.43
2023-04-04T04:29:32.396Z,7.35
2023-04-04T04:34:34.981Z,6.60
2023-04-04T04:39:37.599Z,7.72
2023-04-04T04:44:41.487Z,7.85
2023-04-04T04:49:46.574Z,8.23
2023-04-04T04:54:50.923Z,9.02
2023-04-04T04:59:54.795Z,10.00
2023-04-04T05:04:57.616Z,9.88
2023-04-04T05:10:00.193Z,8.70
2023-04-04T05:15:04.394Z,11.20
2023-04-04T05:20:08.642Z,12.30
2023-04-04T05:25:11.212Z,11.35
2023-04-04T05:30:15.853Z,8.90
2023-04-04T05:35:18.502Z,9.43
2023-04-04T05:40:21.357Z,7.70
2023-04-04T05:45:25.862Z,7.23
2023-04-04T05:50:28.485Z,7.28
2023-04-04T05:55:31.517Z,7.07
2023-04-04T06:00:35.862Z,6.47
2023-04-04T06:05:38.477Z,6.78
2023-04-04T06:10:41.715Z,5.95
2023-04-04T06:15:45.976Z,5.82
2023-04-04T06:20:48.555Z,5.72
2023-04-04T06:25:51.509Z,5.55
2023-04-04T06:30:56.203Z,5.13
2023-04-04T06:35:58.789Z,5.07
2023-04-04T06:41:01.371Z,4.28
2023-04-04T06:46:06.637Z,3.55
2023-04-04T06:51:11.245Z,3.95
2023-04-04T06:56:13.909Z,4.47
2023-04-04T07:01:17.850Z,4.13
2023-04-04T07:06:22.995Z,3.83
2023-04-04T07:11:27.211Z,3.92
2023-04-04T07:16:31.642Z,3.38
2023-04-04T07:21:34.787Z,3.13
2023-04-04T07:26:37.377Z,3.10
2023-04-04T07:31:41.263Z,3.20
2023-04-04T07:36:43.969Z,2.88
2023-04-04T07:41:46.704Z,2.70
2023-04-04T07:47:02.426Z,2.58
2023-04-04T07:52:11.932Z,2.70
2023-04-04T07:57:14.478Z,2.53
2023-04-04T08:02:18.418Z,2.60
2023-04-04T08:07:21.070Z,3.00
2023-04-04T08:12:24.045Z,2.65
2023-04-04T08:17:28.206Z,2.60
2023-04-04T08:22:31.043Z,2.10
2023-04-04T08:27:34.018Z,1.65
2023-04-04T08:32:38.956Z,2.10
2023-04-04T08:37:45.743Z,2.20
2023-04-04T08:42:51.634Z,2.15
2023-04-04T08:47:59.034Z,1.92
2023-04-04T08:53:04.734Z,2.20
2023-04-04T08:58:07.394Z,1.67
2023-04-04T09:03:21.718Z,2.10
2023-04-04T09:08:24.966Z,1.70
2023-04-04T09:13:27.579Z,1.85
2023-04-04T09:18:31.957Z,2.03
2023-04-04T09:23:34.579Z,2.38
2023-04-04T09:28:37.114Z,1.83
2023-04-04T09:33:41.504Z,2.25
2023-04-04T09:38:44.967Z,2.30
2023-04-04T09:43:48.436Z,2.50
2023-04-04T09:48:53.085Z,2.40
2023-04-04T09:53:55.798Z,2.20
2023-04-04T09:59:03.807Z,1.92
2023-04-04T10:04:10.061Z,2.08
2023-04-04T10:09:13.448Z,2.55
2023-04-04T10:14:16.600Z,2.70
2023-04-04T10:24:23.363Z,2.50
2023-04-04T10:29:26.359Z,2.40
2023-04-04T10:34:39.432Z,2.33
2023-04-04T10:39:47.401Z,2.58
2023-04-04T10:44:50.156Z,2.47
2023-04-04T10:49:54.065Z,2.15
2023-04-04T10:54:59.828Z,2.45
2023-04-04T11:00:06.564Z,2.33
2023-04-04T11:05:16.266Z,2.55
2023-04-04T11:10:24.041Z,2.53
2023-04-04T11:15:27.431Z,2.70
2023-04-04T11:20:39.696Z,2.33
2023-04-04T11:25:50.736Z,2.33
2023-04-04T11:31:25.175Z,2.70
2023-04-04T11:36:56.065Z,2.55
2023-04-04T11:42:04.542Z,2.40
2023-04-04T11:47:12.646Z,2.42
2023-04-04T11:52:17.959Z,2.72
2023-04-04T11:57:22.430Z,2.50
2023-04-04T12:02:29.706Z,2.30
2023-04-04T12:07:35.296Z,2.45
2023-04-04T12:12:39.036Z,2.72
2023-04-04T12:17:43.375Z,2.47
2023-04-04T12:22:49.775Z,2.25
2023-04-04T12:27:53.689Z,2.72
2023-04-04T12:32:56.629Z,3.03
2023-04-04T12:38:02.634Z,2.75
2023-04-04T12:43:07.252Z,3.10
2023-04-04T12:48:14.253Z,2.42
2023-04-04T12:53:29.182Z,2.55
2023-04-04T12:58:34.292Z,2.83
2023-04-04T13:03:39.996Z,2.50
2023-04-04T13:08:54.185Z,2.53
2023-04-04T13:14:04.107Z,2.50
2023-04-04T13:19:07.166Z,2.63
2023-04-04T13:29:15.751Z,2.33
2023-04-04T13:34:18.341Z,2.53
2023-04-04T13:39:22.291Z,3.03
2023-04-04T13:44:26.148Z,3.17
2023-04-04T13:49:30.060Z,2.90
2023-04-04T13:54:33.991Z,2.90
2023-04-04T13:59:36.645Z,2.45
2023-04-04T14:04:39.299Z,2.20
2023-04-04T14:09:43.405Z,2.83
2023-04-04T14:14:46.041Z,2.63
2023-04-04T14:19:48.670Z,2.35
2023-04-04T14:24:52.569Z,2.63
2023-04-04T14:29:55.158Z,2.30
2023-04-04T14:34:57.771Z,2.38
2023-04-04T14:40:02.105Z,2.55
2023-04-04T14:45:07.793Z,2.70
2023-04-04T14:50:11.250Z,2.30
2023-04-04T14:55:15.630Z,2.65
2023-04-04T15:00:20.638Z,2.63
2023-04-04T15:05:23.242Z,2.80
2023-04-04T15:10:27.159Z,2.85
2023-04-04T15:15:29.994Z,2.80
2023-04-04T15:20:32.607Z,2.28
2023-04-04T15:25:36.967Z,2.42
2023-04-04T15:30:40.073Z,2.70
2023-04-04T15:40:46.634Z,2.42
2023-04-04T15:45:49.264Z,2.97
2023-04-04T15:50:51.990Z,2.53
2023-04-04T15:55:56.020Z,3.10
2023-04-04T16:00:58.731Z,3.00
2023-04-04T16:06:01.662Z,2.88
2023-04-04T16:11:05.837Z,2.67
2023-04-04T16:16:08.478Z,2.50
2023-04-04T16:21:11.095Z,2.67
2023-04-04T16:26:15.180Z,2.73
2023-04-04T16:31:18.100Z,2.30
2023-04-04T16:36:21.134Z,2.30
2023-04-04T16:41:25.159Z,2.30
2023-04-04T16:46:28.246Z,2.72
2023-04-04T16:51:32.073Z,2.30
2023-04-04T16:56:36.316Z,2.80
2023-04-04T17:01:39.112Z,2.85
2023-04-04T17:06:41.704Z,2.95
2023-04-04T17:11:47.036Z,2.40
2023-04-04T17:16:50.185Z,2.47
2023-04-04T17:21:52.831Z,2.67
2023-04-04T17:26:57.916Z,2.60
2023-04-04T17:32:00.686Z,5.40
2023-04-04T17:37:03.359Z,3.30
2023-04-04T17:42:07.412Z,5.00
2023-04-04T17:47:10.056Z,4.53
2023-04-04T17:52:14.225Z,3.37
2023-04-04T17:57:18.214Z,2.97
2023-04-04T18:02:21.160Z,3.83
2023-04-04T18:07:23.795Z,3.00
2023-04-04T18:12:30.222Z,3.05
2023-04-04T18:17:33.409Z,3.30
2023-04-04T18:22:36.473Z,3.33
2023-04-04T18:27:40.429Z,3.13
2023-04-04T18:32:43.099Z,2.92
2023-04-04T18:37:45.713Z,4.00
2023-04-04T18:42:50.068Z,3.92
2023-04-04T18:47:52.673Z,4.50
2023-04-04T18:52:56.882Z,4.83
2023-04-04T18:58:00.812Z,5.30
2023-04-04T19:03:03.459Z,5.18
2023-04-04T19:08:08.703Z,4.47
2023-04-04T19:13:12.601Z,3.42
2023-04-04T19:18:15.573Z,3.67
2023-04-04T19:23:18.206Z,3.78
2023-04-04T19:28:22.163Z,4.40
2023-04-04T19:33:27.334Z,3.80
2023-04-04T19:38:32.574Z,3.42
2023-04-04T19:43:37.175Z,3.83
2023-04-04T19:48:45.046Z,4.53
2023-04-04T19:53:50.356Z,4.35
2023-04-04T19:58:56.570Z,4.70
2023-04-04T20:04:07.006Z,4.78
2023-04-04T20:09:14.081Z,5.32
2023-04-04T20:14:21.577Z,4.80
2023-04-04T20:19:28.556Z,5.07
2023-04-04T20:24:31.534Z,5.00
2023-04-04T20:29:37.464Z,4.93
2023-04-04T20:34:45.376Z,4.38
2023-04-04T20:39:49.798Z,4.63
2023-04-04T20:44:54.328Z,5.07
2023-04-04T20:49:56.973Z,4.60
2023-04-04T20:54:59.568Z,5.07
2023-04-04T21:00:27.701Z,4.80
2023-04-04T21:05:31.482Z,4.43
2023-04-04T21:10:49.252Z,4.88
2023-04-04T21:15:56.176Z,4.82
2023-04-04T21:21:12.711Z,5.05
2023-04-04T21:26:34.988Z,4.75
2023-04-04T21:31:40.946Z,4.93
2023-04-04T21:36:44.625Z,5.00
2023-04-04T21:41:47.786Z,5.78
2023-04-04T21:46:52.249Z,4.82
2023-04-04T21:51:54.817Z,5.10
2023-04-04T21:56:57.480Z,4.78
2023-04-04T22:02:01.459Z,4.22
2023-04-04T22:07:04.049Z,5.35
2023-04-04T22:12:14.697Z,5.00
2023-04-04T22:17:23.148Z,4.85
2023-04-04T22:22:29.344Z,4.90
2023-04-04T22:27:32.616Z,4.97
2023-04-04T22:32:39.128Z,5.05
2023-04-04T22:37:45.937Z,4.85
2023-04-04T22:42:48.573Z,5.38
2023-04-04T22:47:52.640Z,5.57
2023-04-04T22:52:55.436Z,5.55
2023-04-04T22:57:58.170Z,4.87
2023-04-04T23:03:02.320Z,5.43
2023-04-04T23:08:06.362Z,5.30
2023-04-04T23:13:08.966Z,5.63
2023-04-04T23:18:13.451Z,6.43
2023-04-04T23:23:16.078Z,5.72
2023-04-04T23:28:18.806Z,6.07
2023-04-04T23:33:22.752Z,5.77
2023-04-04T23:38:25.366Z,5.40
2023-04-04T23:43:28.381Z,5.40
2023-04-04T23:48:32.539Z,5.15
2023-04-04T23:53:35.240Z,6.07
2023-04-04T23:58:38.214Z,6.10
